Flight Track Log - Related Links

Times and Time Zones

All times are in EDT time to prevent confusion due to time zone crossing. See the ASQ4443 flight status page for this flight to view local times or setup timezone preferences in your user account.

Time Position Orientation Groundspeed Altitude Reporting Facility
EDT Latitude Longitude Course Direction KTS MPH feet Rate Location/Type
Fri 04:39:50 PM 39.0333 -84.6667 North 160 184 1,300  Level Cincinnati TRACON
Fri 04:41:02 PM 39.0167 -84.6000 108° East 224 258 3,200 1,870 Climbing Cincinnati TRACON
Fri 04:42:08 PM 39.0333 -84.5167 76° East 238 274 5,600 1,975 Climbing Cincinnati TRACON
Fri 04:43:00 PM 39.1072 -84.4000 North  Level FlightAware Approximate
Fri 04:43:40 PM 39.0903 -84.4036 57° Northeast 285 328 8,400  Level Indianapolis Center
Fri 04:44:00 PM 39.2069 -84.4000 North  Level FlightAware Approximate
Fri 04:44:42 PM 39.1725 -84.3769 14° North 305 351 10,300  Level Indianapolis Center
Fri 04:45:00 PM 39.3066 -84.4000 North  Level FlightAware Approximate
Fri 04:45:44 PM 39.2636 -84.3472 14° North 327 376 11,500  Level Indianapolis Center
Fri 04:46:46 PM 39.3611 -84.3214 12° North 347 399 12,800 1,161 Climbing Indianapolis Center
Fri 04:47:48 PM 39.4628 -84.2928 12° North 364 419 13,900 1,161 Climbing Indianapolis Center
Fri 04:48:50 PM 39.5683 -84.2617 13° North 379 436 15,200 1,161 Climbing Indianapolis Center
Fri 04:49:52 PM 39.6739 -84.2303 13° North 383 441 16,300 1,161 Climbing Indianapolis Center
Fri 04:50:54 PM 39.7786 -84.1869 18° North 389 448 17,600 1,161 Climbing Indianapolis Center
Fri 04:51:56 PM 39.8600 -84.0947 41° Northeast 386 444 18,700 1,065 Climbing Indianapolis Center
Fri 04:52:58 PM 39.9514 -83.9806 44° Northeast 385 443 19,800 1,016 Climbing Indianapolis Center
Fri 04:54:00 PM 40.0331 -83.8778 44° Northeast 400 460 20,800 1,016 Climbing Indianapolis Center
Fri 04:55:02 PM 40.1161 -83.7733 44° Northeast 406 467 21,900 1,065 Climbing Indianapolis Center
Fri 04:56:04 PM 40.1983 -83.6694 44° Northeast 405 466 23,000 919 Climbing Indianapolis Center
Fri 04:57:06 PM 40.2797 -83.5650 44° Northeast 402 463 23,800 1,016 Climbing Indianapolis Center
Fri 04:58:08 PM 40.3628 -83.4594 44° Northeast 409 471 25,100 1,113 Climbing Indianapolis Center
Fri 04:59:10 PM 40.4431 -83.3561 44° Northeast 400 460 26,100 919 Climbing Indianapolis Center
Fri 05:00:12 PM 40.5242 -83.2528 44° Northeast 401 461 27,000 823 Climbing Indianapolis Center
Fri 05:01:14 PM 40.6081 -83.1442 44° Northeast 404 465 27,800 1,000 Climbing Indianapolis Center
Fri 05:02:12 PM 40.6867 -83.0447 44° Northeast 397 457 29,000 1,169 Climbing Cleveland Center
Fri 05:03:12 PM 40.7725 -82.9328 45° Northeast 397 457 30,100 1,200 Climbing Cleveland Center
Fri 05:04:12 PM 40.8475 -82.8339 45° Northeast 397 457 31,400 1,050 Climbing Cleveland Center
Fri 05:05:12 PM 40.9244 -82.7322 45° Northeast 392 451 32,200 800 Climbing Cleveland Center
Fri 05:06:12 PM 41.0056 -82.6275 44° Northeast 392 451 33,000 400 Climbing Cleveland Center
Fri 05:07:12 PM 41.0889 -82.5172 45° Northeast 409 471 33,000  Level Cleveland Center
Fri 05:08:12 PM 41.1761 -82.4039 44° Northeast 428 493 33,000 350 Level Cleveland Center
Fri 05:09:12 PM 41.2572 -82.2983 44° Northeast 441 507 33,700 500 Climbing Cleveland Center
Fri 05:10:12 PM 41.3442 -82.1789 46° Northeast 446 513 34,000 150 Climbing Cleveland Center
Fri 05:11:12 PM 41.3986 -82.0197 65° Northeast 454 522 34,000  Level Cleveland Center
Fri 05:12:12 PM 41.4483 -81.8603 67° East 453 521 34,000  Level Cleveland Center
Fri 05:13:12 PM 41.4981 -81.6839 69° East 458 527 34,000  Level Cleveland Center
Fri 05:14:12 PM 41.5411 -81.5264 70° East 453 521 34,000 400 Level Cleveland Center
Fri 05:15:12 PM 41.5842 -81.3717 70° East 447 514 34,800 950 Climbing Cleveland Center
Fri 05:16:12 PM 41.6267 -81.2192 70° East 442 509 35,900 1,000 Climbing Cleveland Center
Fri 05:17:12 PM 41.6672 -81.0750 69° East 425 489 36,800 550 Climbing Cleveland Center
Fri 05:18:12 PM 41.7031 -80.9392 70° East 425 489 37,000 100 Climbing Cleveland Center
Fri 05:19:12 PM 41.7450 -80.7892 69° East 425 489 37,000  Level Cleveland Center
Fri 05:20:12 PM 41.7619 -80.6278 82° East 425 489 37,000  Level Cleveland Center
Fri 05:21:12 PM 41.7472 -80.4581 97° East 433 498 37,000  Level Cleveland Center
Fri 05:22:12 PM 41.7283 -80.2856 98° East 459 528 37,000  Level Cleveland Center
Fri 05:23:12 PM 41.7131 -80.1186 97° East 464 534 37,000  Level Cleveland Center
Fri 05:24:12 PM 41.6975 -79.9297 96° East 464 534 37,000  Level Cleveland Center
Fri 05:25:12 PM 41.6797 -79.7603 98° East 464 534 37,000  Level Cleveland Center
Fri 05:26:12 PM 41.6619 -79.5964 98° East 459 528 37,000  Level Cleveland Center
Fri 05:27:12 PM 41.6458 -79.4328 97° East 448 516 37,000  Level Cleveland Center
Fri 05:28:12 PM 41.6294 -79.2692 98° East 448 516 37,000  Level Cleveland Center
Fri 05:29:12 PM 41.6128 -79.1028 98° East 448 516 37,000  Level Cleveland Center
Fri 05:30:12 PM 41.5939 -78.9367 99° East 448 516 37,000  Level Cleveland Center
Fri 05:31:12 PM 41.5747 -78.7733 99° East 448 516 37,000  Level Cleveland Center
Fri 05:32:12 PM 41.5575 -78.6103 98° East 448 516 37,000  Level Cleveland Center
Fri 05:33:12 PM 41.5397 -78.4442 98° East 448 516 37,000 -200 Level Cleveland Center
Fri 05:34:12 PM 41.5200 -78.2811 99° East 448 516 36,600 -900 Descending Cleveland Center
Fri 05:35:12 PM 41.5019 -78.1156 98° East 448 516 35,200 -1,301 Descending Cleveland Center
Fri 05:35:35 PM 41.4956 -78.0611 99° East 441 507 34,800 -2,000 Descending New York Center
Fri 05:36:33 PM 41.4764 -77.8956 99° East 456 525 32,500 -1,916 Descending New York Center
Fri 05:37:34 PM 41.4531 -77.7269 100° East 456 525 31,000 -942 Descending New York Center
Fri 05:38:34 PM 41.4261 -77.5803 104° East 456 525 30,600 -958 Descending New York Center
Fri 05:39:33 PM 41.3978 -77.4169 103° East 456 525 29,100 -1,613 Descending New York Center
Fri 05:40:33 PM 41.3622 -77.2339 104° East 456 525 27,400 -1,339 Descending New York Center
Fri 05:41:34 PM 41.3314 -77.0678 104° East 461 531 26,400 -942 Descending New York Center
Fri 05:42:34 PM 41.3028 -76.9022 103° East 461 531 25,500 -908 Descending New York Center
Fri 05:43:33 PM 41.2717 -76.7364 104° East 461 531 24,600 -950 Descending New York Center
Fri 05:44:34 PM 41.2400 -76.5736 104° East 461 531 23,600 -1,377 Descending New York Center
Fri 05:45:35 PM 41.2103 -76.4139 104° East 455 524 21,800 -1,835 Descending New York Center
Fri 05:46:35 PM 41.1800 -76.2569 104° East 449 517 19,900 -2,051 Descending New York Center
Fri 05:47:32 PM 41.1536 -76.1058 103° East 430 495 17,800 -1,881 Descending New York Center
Fri 05:48:33 PM 41.1222 -75.9683 107° East 408 470 16,200 -1,463 Descending New York Center
Fri 05:49:35 PM 41.0881 -75.8475 111° Southeast 390 449 14,800 -1,500 Descending New York Center
Fri 05:50:33 PM 41.0483 -75.7014 110° East 383 441 13,200 -958 Descending New York Center
Fri 05:51:34 PM 41.0119 -75.5722 110° East 378 435 12,900 -246 Descending New York Center
Fri 05:52:35 PM 40.9756 -75.4433 110° East 378 435 12,700 -807 Descending New York Center
Fri 05:53:33 PM 40.9422 -75.3311 111° Southeast 373 429 11,300 -1,311 Descending New York Center
Fri 05:54:34 PM 40.9131 -75.2219 109° East 337 388 10,100 -1,180 Descending New York Center
Fri 05:55:35 PM 40.8836 -75.1186 111° Southeast 284 327 8,900 -1,041 Descending New York Center
Fri 05:56:35 PM 40.8558 -75.0236 111° Southeast 275 316 8,000 -915 Descending New York Center
Fri 05:57:33 PM 40.8339 -74.9397 109° East 275 316 7,100 -504 Descending New York Center
Fri 05:58:34 PM 40.8311 -74.8383 92° East 262 302 7,000 -397 Descending New York Center
Fri 05:59:34 PM 40.8611 -74.7522 65° Northeast 254 292 6,300 -500 Descending New York Center
Fri 06:00:34 PM 40.9014 -74.6722 56° Northeast 254 292 6,000 -150 Descending New York Center
Fri 06:01:34 PM 40.9392 -74.5947 57° Northeast 247 284 6,000 -252 Level New York Center
Fri 06:02:33 PM 40.9747 -74.5281 55° Northeast 240 276 5,500 -500 Descending New York Center
Fri 06:03:34 PM 41.0119 -74.4722 49° Northeast 225 259 5,000 -248 Descending New York Center
Fri 06:04:34 PM 41.0372 -74.3939 67° East 205 236 5,000  Level New York Center
Fri 06:05:22 PM 41.0333 -74.3333 95° East 223 257 5,000 -500 Level New York TRACON
Fri 06:06:22 PM 41.0000 -74.2500 118° Southeast 218 251 4,100 -500 Descending New York TRACON
Fri 06:07:22 PM 40.9667 -74.1833 123° Southeast 216 249 4,000 -53 Descending New York TRACON
Fri 06:08:16 PM 40.9333 -74.1500 143° Southeast 219 252 4,000 -150 Level New York TRACON
Fri 06:09:22 PM 40.8667 -74.1167 159° South 224 258 3,700 -600 Descending New York TRACON
Fri 06:10:16 PM 40.8167 -74.1000 166° South 221 254 2,800 -684 Descending New York TRACON
Fri 06:11:16 PM 40.7667 -74.1167 194° South 174 200 2,400 -950 Descending New York TRACON
Fri 06:12:16 PM 40.7333 -74.1333 201° Southwest 124 143 900 -1,500 Descending New York TRACON

Login

Don't have an account? Register now (free) for customized features, flight alerts, and more!